Zemst, Belgium
Current Conditions -  °F | °C
As of 10:50 PM on Friday 28 Nov 2014 (Local Time) from EBBR Reporting Station
Clear Clear  
Wind Chill:   Ceiling: Unl
Heat Index:   Visibility: 6mi
Dew Point:   Wind: 7mph
Humidity: 93%   Direction: 90°E
Pressure: 29.8"   Gusts: NA
Location:  50.98°N, 4.46°E
Report Text: EBBR 282150Z 09006KT CAVOK 04/03 Q1009 NOSIG
Loading
Personal Weather Stations






























Interactive Weather Map New forecast layout! Learn more

10-Day Weather Forecast

Advertisements
Track Severe Weather on mobile